Time;durP1;ratioP1;P1;durP2;ratioP2;P2;SDS_P1;SDS_P2;PMS_P1;PMS_P2;Temp;Humidity;BMP_temperature;BMP_pressure;BME280_temperature;BME280_humidity;BME280_pressure;Samples;Min_cycle;Max_cycle;Signal;HPM_P1;HPM_P2
2023/04/10 00:02:09;;;;;;;8.05;5.68;;;9.90;99.90;;;;;;5033907;28;20033;-50
2023/04/10 00:04:35;;;;;;;9.02;6.22;;;9.90;99.90;;;;;;5031954;28;20070;-49
2023/04/10 00:07:01;;;;;;;10.13;5.75;;;9.90;99.90;;;;;;5033564;28;20140;-50
2023/04/10 00:09:27;;;;;;;10.80;7.20;;;9.80;99.90;;;;;;5015478;28;20037;-48
2023/04/10 00:11:53;;;;;;;9.68;5.72;;;9.60;99.90;;;;;;5033630;28;20073;-49
2023/04/10 00:14:22;;;;;;;8.40;6.20;;;9.60;99.90;;;;;;5034079;28;20123;-48
2023/04/10 00:16:48;;;;;;;9.95;6.32;;;;;;;;;;5015593;28;20041;-48
2023/04/10 00:19:14;;;;;;;9.82;6.55;;;9.50;99.90;;;;;;5048294;28;20045;-48
2023/04/10 00:21:40;;;;;;;8.68;5.85;;;9.40;99.90;;;;;;5033507;28;20424;-50
2023/04/10 00:24:07;;;;;;;9.63;5.47;;;9.30;99.90;;;;;;5033572;28;20046;-47
2023/04/10 00:26:36;;;;;;;8.52;5.63;;;9.30;99.90;;;;;;5032362;28;20494;-48
2023/04/10 00:29:02;;;;;;;8.73;4.75;;;9.10;99.90;;;;;;5033129;28;20511;-50
2023/04/10 00:31:29;;;;;;;7.13;4.90;;;9.00;99.90;;;;;;5033568;28;20128;-50
2023/04/10 00:33:55;;;;;;;7.93;5.82;;;;;;;;;;5033176;28;20037;-49
2023/04/10 00:36:22;;;;;;;7.85;5.97;;;;;;;;;;5033159;28;20021;-49
2023/04/10 00:38:48;;;;;;;7.82;5.97;;;9.00;99.90;;;;;;5033310;28;20469;-49
2023/04/10 00:41:14;;;;;;;6.78;5.05;;;8.80;99.90;;;;;;5032904;28;20033;-47
2023/04/10 00:43:40;;;;;;;8.20;5.75;;;8.80;99.90;;;;;;5033307;28;20079;-50
2023/04/10 00:46:06;;;;;;;8.02;5.53;;;8.80;99.90;;;;;;5032977;28;20034;-50
2023/04/10 00:48:33;;;;;;;12.05;7.22;;;8.80;99.90;;;;;;5033193;28;20034;-48
2023/04/10 00:50:59;;;;;;;7.85;5.25;;;8.80;99.90;;;;;;5032970;28;20041;-48
2023/04/10 00:53:25;;;;;;;9.23;5.22;;;8.80;99.90;;;;;;5033201;28;20496;-48
2023/04/10 00:55:52;;;;;;;7.18;4.68;;;8.80;99.90;;;;;;5032017;28;20041;-49
2023/04/10 00:58:18;;;;;;;9.73;5.68;;;8.70;99.90;;;;;;5033242;28;20029;-50
2023/04/10 01:00:43;;;;;;;7.07;4.80;;;8.70;99.90;;;;;;5033107;28;20041;-50
2023/04/10 01:03:11;;;;;;;8.82;4.97;;;8.70;99.90;;;;;;5032925;28;20029;-47
2023/04/10 01:06:02;;;;;;;4.95;4.30;;;8.70;99.90;;;;;;5033138;28;20025;-48
2023/04/10 01:08:49;;;;;;;8.02;5.38;;;8.70;99.90;;;;;;5032756;28;20133;-50
2023/04/10 01:11:27;;;;;;;8.10;4.20;;;8.70;99.90;;;;;;5032784;28;20034;-47
2023/04/10 01:14:11;;;;;;;8.02;5.28;;;8.70;99.90;;;;;;5033055;28;20393;-49
2023/04/10 01:16:50;;;;;;;4.72;3.88;;;8.70;99.90;;;;;;5032882;28;20040;-50
2023/04/10 01:19:51;;;;;;;6.60;5.05;;;8.70;99.90;;;;;;5032707;28;20048;-49
2023/04/10 01:22:20;;;;;;;7.30;5.15;;;8.80;99.90;;;;;;5032998;28;20032;-48
2023/04/10 01:25:10;;;;;;;4.65;3.70;;;8.70;99.90;;;;;;5032596;28;20045;-48
2023/04/10 01:28:02;;;;;;;7.50;4.40;;;8.80;99.90;;;;;;5032685;28;20083;-50
2023/04/10 01:30:28;;;;;;;5.78;4.32;;;8.70;99.90;;;;;;5047395;28;20060;-50
2023/04/10 01:32:58;;;;;;;6.22;3.85;;;8.70;99.90;;;;;;5030791;28;20559;-50
2023/04/10 01:35:25;;;;;;;4.53;3.53;;;8.50;99.90;;;;;;5032924;28;20036;-49
2023/04/10 01:37:52;;;;;;;10.45;5.63;;;8.30;99.90;;;;;;5032694;28;20384;-50
2023/04/10 01:40:19;;;;;;;8.65;4.85;;;;;;;;;;5032864;28;20030;-50
2023/04/10 01:42:51;;;;;;;4.25;3.58;;;;;;;;;;5030873;28;20037;-47
2023/04/10 01:45:19;;;;;;;5.43;4.53;;;;;;;;;;5032671;28;20029;-49
2023/04/10 01:47:46;;;;;;;7.78;3.67;;;;;;;;;;5032642;28;20068;-48
2023/04/10 01:50:13;;;;;;;5.78;4.32;;;;;;;;;;5032572;28;20064;-49
2023/04/10 01:52:40;;;;;;;7.13;4.00;;;;;;;;;;5033432;28;20038;-50
2023/04/10 01:55:07;;;;;;;7.43;3.97;;;;;;;;;;5036383;28;20029;-47
2023/04/10 01:57:35;;;;;;;4.15;3.30;;;;;;;;;;5035984;28;20087;-48
2023/04/10 02:00:01;;;;;;;6.28;4.38;;;;;;;;;;5035923;28;20029;-49
2023/04/10 02:02:33;;;;;;;5.78;3.97;;;;;;;;;;5036492;28;20026;-47
2023/04/10 02:05:00;;;;;;;7.03;4.85;;;;;;;;;;5035921;28;20025;-50
2023/04/10 02:07:28;;;;;;;5.50;3.55;;;;;;;;;;5035916;28;20029;-49
2023/04/10 02:10:18;;;;;;;4.55;3.53;;;;;;;;;;5036064;28;20044;-49
2023/04/10 02:12:54;;;;;;;6.03;3.17;;;;;;;;;;5035585;28;20037;-47
2023/04/10 02:15:22;;;;;;;6.30;4.15;;;;;;;;;;5035796;28;20033;-47
2023/04/10 02:17:48;;;;;;;5.47;4.47;;;;;;;;;;5050047;28;20033;-48
2023/04/10 02:20:17;;;;;;;5.70;4.55;;;;;;;;;;5035832;28;20037;-48
2023/04/10 02:22:43;;;;;;;5.10;3.47;;;;;;;;;;5035681;28;20474;-50
2023/04/10 02:25:10;;;;;;;6.20;4.70;;;8.70;99.90;;;;;;5035377;28;20049;-49
2023/04/10 02:27:37;;;;;;;3.97;3.03;;;8.40;99.90;;;;;;5035725;28;20036;-50
2023/04/10 02:30:03;;;;;;;4.63;3.60;;;8.40;99.90;;;;;;5035782;28;20026;-49
2023/04/10 02:32:30;;;;;;;7.00;4.30;;;8.30;99.90;;;;;;5033635;28;20045;-50
2023/04/10 02:34:56;;;;;;;6.15;4.30;;;8.40;99.90;;;;;;5035356;28;20029;-49
2023/04/10 02:37:22;;;;;;;4.25;3.55;;;8.30;99.90;;;;;;5035593;28;20087;-50
2023/04/10 02:39:48;;;;;;;5.25;3.03;;;8.30;99.90;;;;;;5035452;28;20445;-49
2023/04/10 02:42:14;;;;;;;5.72;3.58;;;8.30;99.90;;;;;;5032027;28;20073;-49
2023/04/10 02:44:40;;;;;;;4.47;3.42;;;8.30;99.90;;;;;;5049965;28;20057;-50
2023/04/10 02:47:06;;;;;;;5.88;4.03;;;8.30;99.90;;;;;;5050159;28;20056;-48
2023/04/10 02:49:35;;;;;;;5.20;4.40;;;8.30;99.90;;;;;;5035266;28;20528;-49
2023/04/10 02:52:01;;;;;;;7.07;4.05;;;8.40;99.90;;;;;;5024997;28;20034;-47
2023/04/10 02:54:27;;;;;;;5.55;4.90;;;8.40;99.90;;;;;;5015467;28;20470;-49
2023/04/10 02:56:53;;;;;;;4.40;3.10;;;8.40;99.90;;;;;;5014887;28;20037;-48
2023/04/10 02:59:19;;;;;;;6.22;3.65;;;8.40;99.90;;;;;;5015418;28;20034;-50
2023/04/10 03:01:46;;;;;;;3.72;3.35;;;8.40;99.90;;;;;;5029521;28;20506;-48
2023/04/10 03:04:12;;;;;;;4.18;3.78;;;8.40;99.90;;;;;;5014369;28;20029;-50
2023/04/10 03:06:38;;;;;;;4.03;3.22;;;8.40;99.90;;;;;;5015115;28;20037;-48
2023/04/10 03:09:04;;;;;;;3.85;3.25;;;8.50;99.90;;;;;;5013208;28;20171;-50
2023/04/10 03:11:30;;;;;;;5.40;3.67;;;8.40;99.90;;;;;;5014880;28;20053;-48
2023/04/10 03:13:57;;;;;;;5.72;4.07;;;8.50;99.90;;;;;;5014742;28;20033;-48
2023/04/10 03:16:23;;;;;;;6.60;3.70;;;8.50;99.90;;;;;;5020103;28;20038;-50
2023/04/10 03:18:49;;;;;;;6.57;3.60;;;8.50;99.90;;;;;;5034110;28;20040;-48
2023/04/10 03:21:14;;;;;;;5.57;3.75;;;8.60;99.90;;;;;;5034463;28;20112;-48
2023/04/10 03:23:40;;;;;;;5.82;3.65;;;8.60;99.90;;;;;;5034278;28;20022;-50
2023/04/10 03:26:07;;;;;;;3.95;2.35;;;8.50;99.90;;;;;;5034469;28;20033;-49
2023/04/10 03:28:35;;;;;;;5.22;3.80;;;8.50;99.90;;;;;;5032065;28;20499;-48
2023/04/10 03:31:02;;;;;;;3.17;2.80;;;8.50;99.90;;;;;;5015919;28;20478;-49
2023/04/10 03:33:28;;;;;;;2.83;2.58;;;8.50;99.90;;;;;;5015553;28;20506;-49
2023/04/10 03:35:54;;;;;;;4.72;3.70;;;8.40;99.90;;;;;;5032182;28;20030;-50
2023/04/10 03:38:20;;;;;;;4.90;3.42;;;8.40;99.90;;;;;;5015637;28;20386;-48
2023/04/10 03:40:45;;;;;;;4.70;3.25;;;8.40;99.90;;;;;;5015405;28;20061;-50
2023/04/10 03:43:11;;;;;;;5.80;3.83;;;8.30;99.90;;;;;;5032016;28;20571;-48
2023/04/10 03:45:36;;;;;;;4.47;2.85;;;8.30;99.90;;;;;;4998936;28;20037;-49
2023/04/10 03:48:02;;;;;;;3.33;2.83;;;8.20;99.90;;;;;;5031760;28;20052;-49
2023/04/10 03:50:28;;;;;;;4.15;2.35;;;8.30;99.90;;;;;;5031981;28;20025;-49
2023/04/10 03:52:54;;;;;;;4.00;3.60;;;8.10;99.90;;;;;;5015188;28;20059;-48
2023/04/10 03:55:20;;;;;;;3.35;2.90;;;8.00;99.90;;;;;;5031903;28;20033;-48
2023/04/10 03:57:46;;;;;;;4.18;2.72;;;8.00;99.90;;;;;;4998934;28;20142;-48
2023/04/10 04:00:15;;;;;;;7.57;3.70;;;8.00;99.90;;;;;;5033525;28;20492;-50
2023/04/10 04:02:41;;;;;;;4.28;2.92;;;8.00;99.90;;;;;;5033820;28;20032;-50
2023/04/10 04:05:08;;;;;;;4.40;2.97;;;8.10;99.90;;;;;;5033990;28;20021;-50
2023/04/10 04:07:33;;;;;;;4.38;3.97;;;8.10;99.90;;;;;;5034016;28;20037;-48
2023/04/10 04:09:59;;;;;;;5.55;4.35;;;8.10;99.90;;;;;;5033800;28;20031;-48
2023/04/10 04:12:25;;;;;;;4.55;3.83;;;8.20;99.90;;;;;;5033630;28;20131;-48
2023/04/10 04:14:51;;;;;;;4.05;3.65;;;8.20;99.90;;;;;;5032773;28;20492;-48
2023/04/10 04:17:17;;;;;;;5.43;3.63;;;8.20;99.90;;;;;;5033883;28;20017;-49
2023/04/10 04:19:43;;;;;;;5.28;3.13;;;8.20;99.90;;;;;;5031650;28;20061;-48
2023/04/10 04:22:09;;;;;;;4.07;3.72;;;8.20;99.90;;;;;;5032690;28;20535;-50
2023/04/10 04:24:35;;;;;;;3.17;2.70;;;8.20;99.90;;;;;;5047604;28;20076;-50
2023/04/10 04:27:01;;;;;;;3.63;3.17;;;8.20;99.90;;;;;;5031496;28;20065;-48
2023/04/10 04:29:27;;;;;;;3.42;3.08;;;8.20;99.90;;;;;;5033224;28;20036;-49
2023/04/10 04:31:53;;;;;;;5.20;3.80;;;8.20;99.90;;;;;;5033170;28;20120;-48
2023/04/10 04:34:18;;;;;;;4.32;3.45;;;8.20;99.90;;;;;;5023241;28;20096;-50
2023/04/10 04:36:44;;;;;;;3.38;2.85;;;8.00;99.90;;;;;;5021062;28;20503;-50
2023/04/10 04:39:10;;;;;;;2.95;2.42;;;8.00;99.90;;;;;;5023310;28;20105;-50
2023/04/10 04:41:36;;;;;;;3.88;2.25;;;8.00;99.90;;;;;;5021622;28;20109;-48
2023/04/10 04:44:01;;;;;;;4.45;3.53;;;8.00;99.90;;;;;;5023567;28;20031;-48
2023/04/10 04:46:28;;;;;;;6.00;3.75;;;8.10;99.90;;;;;;5023096;28;20347;-48
2023/04/10 04:48:54;;;;;;;5.65;3.83;;;8.00;99.90;;;;;;5021843;28;20092;-49
2023/04/10 04:51:19;;;;;;;4.00;3.05;;;8.00;99.90;;;;;;5022228;28;20034;-49
2023/04/10 04:53:45;;;;;;;3.70;3.22;;;8.00;99.90;;;;;;5027502;28;20029;-48
2023/04/10 04:56:11;;;;;;;3.08;2.60;;;8.00;99.90;;;;;;5033114;28;20026;-51
2023/04/10 04:58:37;;;;;;;4.10;3.50;;;7.90;99.90;;;;;;5031787;28;20030;-49
2023/04/10 05:01:03;;;;;;;4.70;3.45;;;8.00;99.90;;;;;;5032775;28;20547;-51
2023/04/10 05:03:28;;;;;;;5.65;4.25;;;8.00;99.90;;;;;;5014439;28;20044;-48
2023/04/10 05:05:54;;;;;;;5.00;3.08;;;8.00;99.90;;;;;;5033157;28;20025;-49
2023/04/10 05:08:20;;;;;;;4.90;3.65;;;8.00;99.90;;;;;;5032871;28;20381;-49
2023/04/10 05:10:46;;;;;;;5.47;3.20;;;8.00;99.90;;;;;;5033175;28;20113;-48
2023/04/10 05:13:12;;;;;;;5.35;3.00;;;8.00;99.90;;;;;;5033180;28;20485;-48
2023/04/10 05:15:38;;;;;;;4.13;3.55;;;8.00;99.90;;;;;;5047702;28;20037;-50
2023/04/10 05:18:04;;;;;;;3.60;3.30;;;8.00;99.90;;;;;;5032800;28;20477;-51
2023/04/10 05:20:30;;;;;;;6.75;3.85;;;8.00;99.90;;;;;;5032920;28;20026;-51
2023/04/10 05:22:57;;;;;;;6.85;3.30;;;8.00;99.90;;;;;;5030853;28;20103;-49
2023/04/10 05:25:23;;;;;;;5.63;3.05;;;7.90;99.90;;;;;;5032508;28;20427;-49
2023/04/10 05:27:48;;;;;;;4.55;3.80;;;8.10;99.90;;;;;;5036294;28;20039;-51
2023/04/10 05:30:14;;;;;;;2.42;2.17;;;8.00;99.90;;;;;;5036606;28;20087;-48
2023/04/10 05:32:40;;;;;;;3.92;2.85;;;8.00;99.90;;;;;;5036756;28;20033;-47
2023/04/10 05:35:06;;;;;;;5.80;4.05;;;7.90;99.90;;;;;;5036594;28;20075;-48
2023/04/10 05:37:32;;;;;;;3.03;2.35;;;8.00;99.90;;;;;;5034804;28;20060;-48
2023/04/10 05:39:58;;;;;;;4.10;3.70;;;7.90;99.90;;;;;;5036465;28;20474;-49
2023/04/10 05:42:24;;;;;;;8.82;3.97;;;8.10;99.90;;;;;;5036539;28;20033;-49
2023/04/10 05:44:51;;;;;;;3.80;3.03;;;8.10;99.90;;;;;;5036573;28;20036;-48
2023/04/10 05:47:17;;;;;;;5.80;4.15;;;8.20;99.90;;;;;;5036553;28;20032;-50
2023/04/10 05:49:42;;;;;;;4.55;2.92;;;8.20;99.90;;;;;;5035654;28;20029;-49
2023/04/10 05:52:08;;;;;;;5.53;4.65;;;8.20;99.90;;;;;;5035684;28;20048;-50
2023/04/10 05:54:34;;;;;;;4.82;3.20;;;8.20;99.90;;;;;;5017850;28;20034;-49
2023/04/10 05:57:00;;;;;;;4.00;3.35;;;8.10;99.90;;;;;;5034327;28;20070;-48
2023/04/10 05:59:26;;;;;;;6.07;4.93;;;8.10;99.90;;;;;;5035671;28;20075;-50
2023/04/10 06:01:52;;;;;;;4.93;4.13;;;8.20;99.90;;;;;;5036310;28;20029;-51
2023/04/10 06:04:20;;;;;;;6.15;3.78;;;8.20;99.90;;;;;;5036275;28;20032;-48
2023/04/10 06:06:46;;;;;;;3.00;2.70;;;8.30;99.90;;;;;;5035741;28;20052;-49
2023/04/10 06:09:11;;;;;;;4.57;3.28;;;8.20;99.90;;;;;;5033262;28;20034;-51
2023/04/10 06:11:37;;;;;;;4.97;3.13;;;8.30;99.90;;;;;;5035147;28;20137;-51
2023/04/10 06:14:03;;;;;;;4.18;3.75;;;8.40;99.90;;;;;;5036050;28;20818;-50
2023/04/10 06:16:28;;;;;;;4.45;3.38;;;8.40;99.90;;;;;;5034521;28;20034;-50
2023/04/10 06:18:54;;;;;;;6.10;4.60;;;8.40;99.90;;;;;;5035056;28;20450;-50
2023/04/10 06:21:20;;;;;;;4.75;4.03;;;8.50;99.90;;;;;;5024737;28;20470;-52
2023/04/10 06:23:46;;;;;;;4.80;3.78;;;8.50;99.90;;;;;;5015571;28;20036;-48
2023/04/10 06:26:11;;;;;;;6.40;4.53;;;8.50;99.90;;;;;;5030476;28;20087;-48
2023/04/10 06:28:37;;;;;;;4.75;3.65;;;8.40;99.90;;;;;;5016299;28;20459;-49
2023/04/10 06:31:06;;;;;;;3.33;2.83;;;8.40;99.90;;;;;;5015780;28;20149;-48
2023/04/10 06:33:34;;;;;;;3.03;2.80;;;8.30;99.90;;;;;;5025021;28;20076;-50
2023/04/10 06:36:00;;;;;;;5.80;4.05;;;8.40;99.90;;;;;;5035694;28;20037;-48
2023/04/10 06:38:26;;;;;;;4.75;3.70;;;8.50;99.90;;;;;;5014381;28;20092;-52
2023/04/10 06:40:52;;;;;;;8.75;4.63;;;8.60;99.90;;;;;;5015432;28;20049;-48
2023/04/10 06:43:17;;;;;;;5.72;3.92;;;8.60;99.90;;;;;;5015629;28;20030;-51
2023/04/10 06:45:44;;;;;;;6.20;4.18;;;8.50;99.90;;;;;;5015847;28;20124;-51
2023/04/10 06:48:10;;;;;;;6.22;4.38;;;8.50;99.90;;;;;;5030123;28;20375;-48
2023/04/10 06:50:35;;;;;;;4.32;3.35;;;8.50;99.90;;;;;;5013663;28;20042;-48
2023/04/10 06:53:01;;;;;;;7.18;4.32;;;8.60;99.90;;;;;;5015606;28;20043;-51
2023/04/10 06:55:27;;;;;;;4.13;3.47;;;8.60;99.90;;;;;;5030058;28;20036;-49
2023/04/10 06:57:53;;;;;;;3.22;1.88;;;8.60;99.90;;;;;;5015465;28;20022;-50
2023/04/10 07:00:19;;;;;;;4.13;3.72;;;8.40;99.90;;;;;;5013157;28;20490;-51
2023/04/10 07:02:46;;;;;;;4.85;3.17;;;8.40;99.90;;;;;;5012917;28;20129;-51
2023/04/10 07:05:12;;;;;;;6.53;4.45;;;8.50;99.90;;;;;;5012985;28;20125;-50
2023/04/10 07:07:38;;;;;;;5.95;3.88;;;8.50;99.90;;;;;;5012968;28;20064;-52
2023/04/10 07:10:05;;;;;;;5.53;4.07;;;8.40;99.90;;;;;;5013037;28;20073;-49
2023/04/10 07:12:30;;;;;;;3.05;2.17;;;8.50;99.90;;;;;;5012927;28;20478;-49
2023/04/10 07:14:56;;;;;;;5.75;3.47;;;8.50;99.90;;;;;;5012775;28;20093;-49
2023/04/10 07:17:22;;;;;;;5.63;4.28;;;8.70;99.90;;;;;;5012925;28;20029;-48
2023/04/10 07:19:47;;;;;;;5.70;3.70;;;8.70;99.90;;;;;;5012710;28;20038;-49
2023/04/10 07:22:14;;;;;;;5.13;3.80;;;8.80;99.90;;;;;;4996274;28;20096;-52
2023/04/10 07:24:40;;;;;;;6.03;4.30;;;8.70;99.90;;;;;;5012497;28;20096;-51
2023/04/10 07:27:06;;;;;;;5.88;4.03;;;8.80;99.90;;;;;;5012638;28;20038;-50
2023/04/10 07:29:31;;;;;;;4.30;3.10;;;8.70;99.90;;;;;;5012774;28;20080;-49
2023/04/10 07:31:57;;;;;;;7.85;4.70;;;8.80;99.90;;;;;;5014049;28;20077;-50
2023/04/10 07:34:24;;;;;;;4.63;4.20;;;8.80;99.90;;;;;;5014886;28;20029;-50
2023/04/10 07:36:50;;;;;;;3.30;3.00;;;8.80;99.90;;;;;;5014427;28;20539;-50
2023/04/10 07:39:16;;;;;;;6.13;4.38;;;8.70;99.90;;;;;;5014551;28;20030;-50
2023/04/10 07:41:42;;;;;;;3.38;3.10;;;8.60;99.90;;;;;;5014561;28;20080;-51
2023/04/10 07:44:08;;;;;;;7.03;4.03;;;8.60;99.90;;;;;;5014420;28;20037;-50
2023/04/10 07:46:34;;;;;;;2.63;1.75;;;8.80;99.90;;;;;;5014713;28;20030;-51
2023/04/10 07:48:59;;;;;;;4.72;3.95;;;8.60;99.90;;;;;;5014096;28;20026;-48
2023/04/10 07:51:26;;;;;;;6.32;3.97;;;8.60;99.90;;;;;;5021825;28;20052;-51
2023/04/10 07:53:52;;;;;;;5.45;3.10;;;8.60;99.90;;;;;;5024762;28;20037;-49
2023/04/10 07:56:20;;;;;;;2.65;1.85;;;8.60;99.90;;;;;;5013755;28;20042;-51
2023/04/10 07:58:46;;;;;;;4.38;3.70;;;8.50;99.90;;;;;;5026590;28;20053;-51
2023/04/10 08:01:12;;;;;;;1.45;1.35;;;8.60;99.90;;;;;;5026584;28;20025;-51
2023/04/10 08:03:42;;;;;;;5.68;4.07;;;8.50;99.90;;;;;;5024881;28;20064;-49
2023/04/10 08:06:09;;;;;;;4.93;3.83;;;8.70;99.90;;;;;;5025879;28;20025;-51
2023/04/10 08:08:36;;;;;;;5.28;4.35;;;8.80;99.90;;;;;;5021940;28;20029;-49
2023/04/10 08:11:06;;;;;;;4.47;3.45;;;8.90;99.90;;;;;;5028727;28;20041;-50
2023/04/10 08:13:32;;;;;;;5.15;3.60;;;8.80;99.90;;;;;;5034858;28;20030;-51
2023/04/10 08:15:58;;;;;;;7.72;4.10;;;8.80;99.90;;;;;;5029438;28;20050;-49
2023/04/10 08:18:24;;;;;;;3.78;2.08;;;8.90;99.90;;;;;;5032120;28;20112;-48
2023/04/10 08:20:50;;;;;;;8.57;4.93;;;8.80;99.90;;;;;;5034729;28;20056;-52
2023/04/10 08:23:15;;;;;;;4.70;3.40;;;8.90;99.90;;;;;;5034486;28;20055;-50
2023/04/10 08:25:41;;;;;;;8.25;4.75;;;9.10;99.90;;;;;;5034817;28;20049;-48
2023/04/10 08:28:07;;;;;;;4.00;3.28;;;9.20;99.90;;;;;;5032367;28;20080;-51
2023/04/10 08:30:32;;;;;;;5.63;3.08;;;9.10;99.90;;;;;;5033694;28;20411;-49
2023/04/10 08:32:58;;;;;;;5.28;3.47;;;9.40;99.90;;;;;;5047908;28;20103;-52
2023/04/10 08:35:24;;;;;;;4.50;3.63;;;9.30;99.90;;;;;;5033454;28;20164;-48
2023/04/10 08:37:50;;;;;;;4.68;3.15;;;9.30;99.90;;;;;;5031525;28;20029;-50
2023/04/10 08:40:15;;;;;;;5.18;4.05;;;9.30;99.90;;;;;;5031600;28;20041;-51
2023/04/10 08:42:41;;;;;;;5.32;4.40;;;9.50;99.90;;;;;;5031437;28;20037;-51
2023/04/10 08:45:07;;;;;;;5.35;2.80;;;9.60;99.90;;;;;;5033268;28;20029;-49
2023/04/10 08:47:39;;;;;;;7.25;3.85;;;;;;;;;;5032230;28;20382;-52
2023/04/10 08:50:11;;;;;;;5.93;3.58;;;9.70;99.90;;;;;;5031358;28;20037;-51
2023/04/10 08:52:42;;;;;;;3.95;2.25;;;9.80;99.90;;;;;;5048108;28;20493;-49
2023/04/10 08:55:10;;;;;;;3.92;3.13;;;9.70;99.90;;;;;;5033153;28;20389;-51
2023/04/10 08:57:37;;;;;;;3.47;2.72;;;9.80;99.90;;;;;;5015428;28;20065;-49
2023/04/10 09:00:03;;;;;;;4.50;3.85;;;10.00;99.90;;;;;;5011617;28;20140;-51
2023/04/10 09:02:29;;;;;;;5.05;4.07;;;10.10;99.90;;;;;;5014707;28;20037;-50
2023/04/10 09:04:57;;;;;;;5.22;3.33;;;10.30;99.90;;;;;;5017335;28;20470;-50
2023/04/10 09:07:23;;;;;;;5.28;4.03;;;10.40;99.90;;;;;;5017552;28;20480;-49
2023/04/10 09:09:49;;;;;;;7.30;4.28;;;10.40;99.90;;;;;;5017631;28;20030;-49
2023/04/10 09:12:15;;;;;;;2.63;2.33;;;;;;;;;;5017192;28;20045;-49
2023/04/10 09:14:42;;;;;;;5.28;4.65;;;;;;;;;;5020045;28;20029;-50
2023/04/10 09:17:22;;;;;;;8.10;3.72;;;10.80;99.90;;;;;;5017199;28;20109;-52
2023/04/10 09:19:51;;;;;;;4.93;3.65;;;;;;;;;;5017105;28;20022;-51
2023/04/10 09:22:17;;;;;;;3.38;2.75;;;11.10;99.90;;;;;;5017065;28;20034;-51
2023/04/10 09:24:45;;;;;;;6.97;4.57;;;11.40;99.90;;;;;;5016992;28;20050;-48
2023/04/10 09:27:40;;;;;;;7.70;3.92;;;11.40;99.90;;;;;;5017239;28;20105;-50
2023/04/10 09:30:07;;;;;;;5.28;4.78;;;11.20;99.90;;;;;;5017144;28;20492;-50
2023/04/10 09:32:41;;;;;;;6.40;4.85;;;11.60;99.90;;;;;;5015400;28;20069;-49
2023/04/10 09:35:11;;;;;;;4.68;3.90;;;11.90;99.90;;;;;;5026379;28;20029;-52
2023/04/10 09:37:39;;;;;;;5.70;4.63;;;12.10;99.90;;;;;;5027368;28;20031;-50
2023/04/10 09:40:05;;;;;;;5.32;4.13;;;12.00;99.90;;;;;;5017284;28;20030;-49
2023/04/10 09:42:32;;;;;;;4.85;3.38;;;;;;;;;;5016712;28;20030;-49
2023/04/10 09:44:59;;;;;;;1.27;1.08;;;12.30;99.90;;;;;;5016624;28;20485;-49
2023/04/10 09:47:24;;;;;;;4.13;3.67;;;12.20;99.90;;;;;;5016571;28;20120;-49
2023/04/10 09:49:52;;;;;;;3.95;3.53;;;;;;;;;;5014844;28;20121;-50
2023/04/10 09:52:29;;;;;;;5.65;4.07;;;12.70;99.90;;;;;;5018394;28;20038;-50
2023/04/10 09:55:01;;;;;;;4.93;3.70;;;12.80;99.90;;;;;;5036106;28;20029;-51
2023/04/10 09:57:29;;;;;;;6.00;3.63;;;12.60;99.90;;;;;;5036477;28;20465;-50
2023/04/10 09:59:57;;;;;;;6.68;4.53;;;13.00;99.90;;;;;;5034324;28;20087;-51
2023/04/10 10:02:26;;;;;;;4.57;3.97;;;13.20;99.90;;;;;;5036020;28;20025;-50
2023/04/10 10:04:52;;;;;;;4.65;3.10;;;13.70;99.90;;;;;;5035049;28;20477;-52
2023/04/10 10:07:19;;;;;;;4.68;3.78;;;;;;;;;;5033753;28;20160;-50
2023/04/10 10:09:47;;;;;;;4.57;3.40;;;14.00;99.90;;;;;;5000843;28;20037;-54
2023/04/10 10:12:26;;;;;;;5.35;3.58;;;14.10;99.90;;;;;;5024437;28;20132;-52
2023/04/10 10:15:10;;;;;;;3.25;2.80;;;14.10;99.90;;;;;;5024125;28;20033;-51
2023/04/10 10:17:46;;;;;;;3.17;2.78;;;13.70;99.90;;;;;;5033637;28;20037;-50
2023/04/10 10:20:16;;;;;;;6.88;4.78;;;14.10;99.90;;;;;;5033870;28;20041;-49
2023/04/10 10:22:42;;;;;;;5.13;3.70;;;14.50;99.90;;;;;;5033592;28;20760;-54
2023/04/10 10:25:08;;;;;;;3.53;3.22;;;14.80;99.90;;;;;;5016776;28;20064;-52
2023/04/10 10:27:36;;;;;;;4.28;3.47;;;;;;;;;;5033408;28;20072;-50
2023/04/10 10:30:03;;;;;;;5.00;3.13;;;;;;;;;;5033579;28;20080;-51
2023/04/10 10:32:29;;;;;;;4.32;3.15;;;15.10;99.90;;;;;;5033327;28;20528;-52
2023/04/10 10:34:56;;;;;;;4.28;3.38;;;15.10;99.90;;;;;;5033499;28;20026;-54
2023/04/10 10:37:22;;;;;;;6.63;3.88;;;15.40;99.90;;;;;;5033563;28;20496;-53
2023/04/10 10:40:04;;;;;;;6.50;4.55;;;;;;;;;;5050230;28;20033;-53
2023/04/10 10:42:34;;;;;;;7.03;4.57;;;;;;;;;;5050215;28;20132;-50
2023/04/10 10:45:14;;;;;;;9.07;3.92;;;16.10;99.90;;;;;;5035475;28;20060;-49
2023/04/10 10:47:53;;;;;;;5.10;3.30;;;16.30;99.90;;;;;;5035557;28;20060;-53
2023/04/10 10:50:21;;;;;;;2.85;2.63;;;16.10;99.90;;;;;;5035474;28;20385;-52
2023/04/10 10:52:52;;;;;;;8.85;5.10;;;;;;;;;;5034963;28;20047;-49
2023/04/10 10:55:21;;;;;;;6.30;3.97;;;;;;;;;;5035143;28;20053;-52
2023/04/10 10:57:53;;;;;;;5.28;3.28;;;;;;;;;;5035051;28;20092;-49
2023/04/10 11:00:21;;;;;;;7.90;3.83;;;16.60;99.90;;;;;;5035243;28;20063;-50
2023/04/10 11:03:11;;;;;;;5.70;3.33;;;16.50;99.90;;;;;;5049822;28;20129;-50
2023/04/10 11:06:08;;;;;;;6.00;3.15;;;16.30;99.90;;;;;;5049836;28;20029;-49
2023/04/10 11:08:34;;;;;;;4.47;3.22;;;16.40;99.90;;;;;;5035018;28;20120;-52
2023/04/10 11:11:04;;;;;;;5.13;3.97;;;16.30;99.90;;;;;;5035020;28;20104;-51
2023/04/10 11:13:31;;;;;;;6.53;4.18;;;16.00;99.90;;;;;;5034639;28;20496;-50
2023/04/10 11:15:59;;;;;;;6.85;4.05;;;16.00;99.90;;;;;;5034726;28;20029;-50
2023/04/10 11:18:44;;;;;;;5.30;3.97;;;;;;;;;;5049579;28;20084;-52
2023/04/10 11:21:18;;;;;;;5.88;4.25;;;17.10;99.90;;;;;;5034810;28;20113;-52
2023/04/10 11:23:50;;;;;;;6.13;3.28;;;;;;;;;;5033791;28;20022;-51
2023/04/10 11:26:34;;;;;;;7.30;4.50;;;17.80;99.90;;;;;;5034317;28;20065;-53
2023/04/10 11:29:24;;;;;;;5.22;3.72;;;16.90;99.90;;;;;;5033987;28;20037;-48
2023/04/10 11:31:57;;;;;;;3.97;3.17;;;17.00;99.90;;;;;;5033442;28;20033;-48
2023/04/10 11:34:23;;;;;;;5.68;4.35;;;17.10;99.90;;;;;;5034792;28;20029;-51
2023/04/10 11:36:49;;;;;;;4.63;3.17;;;17.10;99.90;;;;;;5034106;28;20025;-50
2023/04/10 11:39:17;;;;;;;4.90;3.03;;;17.30;99.90;;;;;;5034550;28;20495;-50
2023/04/10 11:41:48;;;;;;;6.25;3.92;;;17.20;99.90;;;;;;5034369;28;20029;-51
2023/04/10 11:44:19;;;;;;;4.35;3.08;;;17.30;99.90;;;;;;5034311;28;20025;-50
2023/04/10 11:46:46;;;;;;;4.60;3.05;;;17.00;99.90;;;;;;5033987;28;20038;-50
2023/04/10 11:49:23;;;;;;;6.45;4.05;;;16.90;99.90;;;;;;5033139;28;20037;-49
2023/04/10 11:51:50;;;;;;;7.85;4.22;;;16.90;99.90;;;;;;5034194;28;20454;-52
2023/04/10 11:54:21;;;;;;;4.28;3.40;;;16.80;99.90;;;;;;5034003;28;20026;-50
2023/04/10 11:57:04;;;;;;;4.07;3.15;;;16.90;99.90;;;;;;5033797;28;20026;-51
2023/04/10 11:59:32;;;;;;;5.22;3.45;;;16.90;99.90;;;;;;5033380;28;20152;-52
2023/04/10 12:02:09;;;;;;;5.40;3.67;;;;;;;;;;5033863;28;20032;-52
2023/04/10 12:04:35;;;;;;;4.93;3.30;;;16.70;99.90;;;;;;5033970;28;20033;-49
2023/04/10 12:07:01;;;;;;;4.18;2.70;;;16.60;99.90;;;;;;5033615;28;20030;-50
2023/04/10 12:09:27;;;;;;;6.05;4.00;;;16.60;99.90;;;;;;5034039;28;20025;-50
2023/04/10 12:12:02;;;;;;;6.60;3.95;;;16.50;99.90;;;;;;5033533;28;20366;-52
2023/04/10 12:14:41;;;;;;;4.25;2.72;;;16.30;99.90;;;;;;5033377;28;20033;-53
2023/04/10 12:17:09;;;;;;;6.28;3.65;;;16.40;99.90;;;;;;5033809;28;20447;-51
2023/04/10 12:19:37;;;;;;;4.93;4.00;;;16.60;99.90;;;;;;5033728;28;20033;-49
2023/04/10 12:22:03;;;;;;;6.35;3.67;;;;;;;;;;5033453;28;20049;-50
2023/04/10 12:24:47;;;;;;;5.78;3.60;;;17.30;99.90;;;;;;5014931;28;20155;-48
2023/04/10 12:27:24;;;;;;;4.15;2.78;;;;;;;;;;5033587;28;20424;-47
2023/04/10 12:29:51;;;;;;;4.63;3.15;;;;;;;;;;5033234;28;20445;-48
2023/04/10 12:32:17;;;;;;;4.40;3.20;;;;;;;;;;5048160;28;20048;-48
2023/04/10 12:34:56;;;;;;;4.63;3.72;;;;;;;;;;5033428;28;20079;-48
2023/04/10 12:37:22;;;;;;;7.10;3.25;;;;;;;;;;5032777;28;20038;-49
2023/04/10 12:39:48;;;;;;;5.07;3.45;;;;;;;;;;5031441;28;20439;-49
2023/04/10 12:42:16;;;;;;;5.85;4.05;;;;;;;;;;5026502;28;20123;-48
2023/04/10 12:44:56;;;;;;;4.75;3.20;;;;;;;;;;5013157;28;20030;-49
2023/04/10 12:47:22;;;;;;;5.85;3.38;;;16.20;99.90;;;;;;5030797;28;20033;-51
2023/04/10 12:50:07;;;;;;;6.30;3.67;;;16.10;99.90;;;;;;5030600;28;20048;-51
2023/04/10 12:52:35;;;;;;;5.40;3.58;;;15.90;99.90;;;;;;5029904;28;20099;-52
2023/04/10 12:55:11;;;;;;;5.10;3.72;;;15.80;99.90;;;;;;5030789;28;20026;-48
2023/04/10 12:57:37;;;;;;;5.38;3.42;;;15.90;99.90;;;;;;5030923;28;20049;-50
2023/04/10 13:00:04;;;;;;;4.78;3.88;;;16.00;99.90;;;;;;5030859;28;20392;-51
2023/04/10 13:02:30;;;;;;;7.07;3.95;;;16.00;99.90;;;;;;5036499;28;20392;-50
2023/04/10 13:04:56;;;;;;;7.18;3.88;;;16.20;99.90;;;;;;5050562;28;20025;-54
2023/04/10 13:07:21;;;;;;;6.10;4.70;;;16.10;99.90;;;;;;5050785;28;20037;-48
2023/04/10 13:09:47;;;;;;;5.00;3.28;;;16.10;99.90;;;;;;5050689;28;20096;-48
2023/04/10 13:12:13;;;;;;;6.07;3.40;;;15.90;99.90;;;;;;5050638;28;20048;-48
2023/04/10 13:14:39;;;;;;;8.73;4.07;;;15.80;99.90;;;;;;5050052;28;20037;-51